Time;durP1;ratioP1;P1;durP2;ratioP2;P2;SDS_P1;SDS_P2;PMS_P1;PMS_P2;Temp;Humidity;BMP_temperature;BMP_pressure;BME280_temperature;BME280_humidity;BME280_pressure;Samples;Min_cycle;Max_cycle;Signal;HPM_P1;HPM_P2
2021/08/01 00:01:36;;;;;;;3.20;3.00;;;21.60;95.60;;;;;;4976838;28;20283;-74
2021/08/01 00:04:03;;;;;;;3.28;2.97;;;21.60;95.60;;;;;;4976469;28;20424;-71
2021/08/01 00:06:31;;;;;;;4.55;2.72;;;21.70;95.30;;;;;;4976451;28;20034;-72
2021/08/01 00:08:58;;;;;;;3.88;2.88;;;22.00;95.20;;;;;;4975098;28;20026;-72
2021/08/01 00:11:25;;;;;;;6.13;2.90;;;22.20;95.00;;;;;;4975993;28;20030;-72
2021/08/01 00:13:53;;;;;;;5.45;3.15;;;22.20;94.60;;;;;;4976206;28;20058;-70
2021/08/01 00:16:22;;;;;;;3.90;3.00;;;22.30;94.40;;;;;;4975978;28;20105;-72
2021/08/01 00:18:49;;;;;;;4.13;3.20;;;22.40;94.60;;;;;;4975871;28;20049;-72
2021/08/01 00:21:16;;;;;;;4.25;2.75;;;22.40;94.30;;;;;;4976231;28;20025;-71
2021/08/01 00:23:44;;;;;;;3.20;2.90;;;22.50;94.30;;;;;;4975847;28;20082;-72
2021/08/01 00:26:11;;;;;;;4.53;2.75;;;22.50;94.00;;;;;;4975759;28;20019;-70
2021/08/01 00:28:38;;;;;;;4.65;2.90;;;22.60;94.40;;;;;;4975690;28;20035;-71
2021/08/01 00:31:06;;;;;;;5.07;3.10;;;22.50;94.30;;;;;;4975871;28;20022;-71
2021/08/01 00:33:33;;;;;;;5.93;3.13;;;22.50;94.00;;;;;;4976086;28;20033;-72
2021/08/01 00:36:00;;;;;;;3.65;2.78;;;22.50;94.10;;;;;;4975637;28;20023;-71
2021/08/01 00:38:27;;;;;;;4.63;2.88;;;22.60;94.40;;;;;;4975616;28;20073;-71
2021/08/01 00:40:55;;;;;;;3.30;3.00;;;22.70;94.30;;;;;;4975645;28;20077;-72
2021/08/01 00:43:22;;;;;;;3.45;2.67;;;22.80;93.80;;;;;;4975926;28;20502;-72
2021/08/01 00:45:51;;;;;;;5.65;3.03;;;22.90;93.50;;;;;;4974317;28;20479;-71
2021/08/01 00:48:18;;;;;;;5.45;3.15;;;22.90;93.40;;;;;;4974856;28;20034;-72
2021/08/01 00:50:46;;;;;;;3.60;3.30;;;22.90;93.40;;;;;;4975426;28;20030;-73
2021/08/01 00:53:14;;;;;;;5.85;3.00;;;22.90;93.60;;;;;;4975789;28;20101;-74
2021/08/01 00:55:41;;;;;;;4.82;2.90;;;22.90;93.60;;;;;;4974382;28;20027;-74
2021/08/01 00:58:09;;;;;;;3.08;2.78;;;23.00;93.60;;;;;;4973941;28;20038;-74
2021/08/01 01:03:19;;;;;;;4.10;2.70;;;23.00;94.10;;;;;;4975329;28;20031;-73
2021/08/01 01:05:56;;;;;;;4.25;3.30;;;23.10;93.20;;;;;;4975171;28;20557;-69
2021/08/01 01:08:50;;;;;;;3.67;3.00;;;23.20;93.30;;;;;;4975155;28;20444;-69
2021/08/01 01:11:19;;;;;;;5.22;3.08;;;23.30;93.50;;;;;;4964500;28;20400;-68
2021/08/01 01:13:50;;;;;;;3.88;3.00;;;23.40;93.10;;;;;;4974881;28;20026;-68
2021/08/01 01:16:19;;;;;;;3.30;2.78;;;23.40;93.00;;;;;;4974929;28;20058;-69
2021/08/01 01:18:52;;;;;;;3.85;3.25;;;23.40;92.60;;;;;;4973351;28;20034;-68
2021/08/01 01:21:40;;;;;;;4.57;2.78;;;23.40;93.40;;;;;;4974671;28;20565;-68
2021/08/01 01:24:17;;;;;;;3.88;3.20;;;23.30;92.80;;;;;;4974678;28;20022;-67
2021/08/01 01:27:23;;;;;;;4.20;3.10;;;23.20;92.90;;;;;;4974625;28;20046;-67
2021/08/01 01:30:04;;;;;;;3.90;3.05;;;23.10;93.00;;;;;;4970843;28;20073;-68
2021/08/01 01:32:54;;;;;;;4.07;3.28;;;23.00;93.50;;;;;;4974920;28;20022;-68
2021/08/01 01:35:22;;;;;;;3.40;3.10;;;23.00;94.00;;;;;;4975910;28;20030;-69
2021/08/01 01:37:51;;;;;;;4.00;3.60;;;23.10;93.70;;;;;;4975643;28;20113;-69
2021/08/01 01:40:22;;;;;;;5.03;4.05;;;23.30;93.10;;;;;;4974322;28;20487;-69
2021/08/01 01:42:53;;;;;;;4.95;3.60;;;23.40;93.60;;;;;;4974303;28;20484;-70
2021/08/01 01:45:20;;;;;;;4.18;3.60;;;23.60;93.30;;;;;;4974473;28;20027;-69
2021/08/01 01:47:50;;;;;;;4.13;3.72;;;23.70;93.30;;;;;;4974152;28;20035;-69
2021/08/01 01:50:18;;;;;;;4.55;3.40;;;23.80;92.90;;;;;;4972691;28;20026;-67
2021/08/01 01:52:51;;;;;;;5.85;3.70;;;23.70;92.60;;;;;;4974202;28;20030;-69
2021/08/01 01:55:20;;;;;;;4.50;3.90;;;23.90;92.40;;;;;;4974388;28;20073;-69
2021/08/01 01:57:51;;;;;;;4.82;3.70;;;23.80;92.70;;;;;;4973973;28;20031;-68
2021/08/01 02:00:18;;;;;;;4.88;3.92;;;24.00;92.40;;;;;;4973857;28;20132;-69
2021/08/01 02:02:46;;;;;;;4.78;4.25;;;24.00;92.50;;;;;;4973850;28;20056;-70
2021/08/01 02:05:13;;;;;;;4.93;4.00;;;24.00;92.80;;;;;;4973884;28;20014;-69
2021/08/01 02:07:41;;;;;;;4.75;3.90;;;24.00;92.10;;;;;;4973897;28;20034;-70
2021/08/01 02:10:25;;;;;;;6.13;4.28;;;24.00;92.50;;;;;;4972484;28;20519;-69
2021/08/01 02:12:55;;;;;;;4.90;4.40;;;24.10;92.50;;;;;;4973744;28;20518;-69
2021/08/01 02:15:31;;;;;;;6.43;4.93;;;24.30;92.40;;;;;;4972349;28;20031;-71
2021/08/01 02:18:03;;;;;;;4.30;4.00;;;24.40;92.80;;;;;;4973867;28;20035;-69
2021/08/01 02:20:52;;;;;;;5.80;4.20;;;24.40;92.20;;;;;;4974827;28;20102;-69
2021/08/01 02:23:38;;;;;;;5.05;3.55;;;24.50;92.10;;;;;;4973696;28;20030;-70
2021/08/01 02:26:07;;;;;;;4.82;3.92;;;24.60;92.30;;;;;;4972387;28;20045;-70
2021/08/01 02:28:36;;;;;;;6.18;3.55;;;24.60;91.90;;;;;;4972358;28;20033;-70
2021/08/01 02:31:03;;;;;;;5.20;3.40;;;24.70;92.30;;;;;;4973561;28;20031;-70
2021/08/01 02:33:31;;;;;;;4.90;4.05;;;24.90;92.50;;;;;;4973803;28;20023;-70
2021/08/01 02:36:05;;;;;;;6.82;3.70;;;24.80;91.60;;;;;;4973767;28;20046;-70
2021/08/01 02:38:33;;;;;;;5.38;4.03;;;25.00;91.80;;;;;;4973509;28;20061;-70
2021/08/01 02:41:08;;;;;;;6.00;3.90;;;25.10;91.90;;;;;;4972622;28;20022;-70
2021/08/01 02:43:36;;;;;;;5.65;4.07;;;25.20;91.50;;;;;;4973687;28;20023;-69
2021/08/01 02:46:06;;;;;;;4.95;4.25;;;25.30;91.30;;;;;;4973473;28;20082;-70
2021/08/01 02:48:36;;;;;;;5.38;3.90;;;25.30;91.50;;;;;;4973575;28;20114;-70
2021/08/01 02:51:07;;;;;;;4.30;3.90;;;25.40;91.20;;;;;;4972255;28;20023;-69
2021/08/01 02:53:44;;;;;;;4.70;4.00;;;25.20;90.80;;;;;;4973774;28;20027;-73
2021/08/01 02:56:18;;;;;;;5.35;4.10;;;25.20;91.20;;;;;;4972472;28;20042;-73
2021/08/01 02:58:49;;;;;;;5.28;3.80;;;25.20;91.30;;;;;;4973939;28;20023;-73
2021/08/01 03:01:17;;;;;;;4.05;3.50;;;25.10;90.50;;;;;;4974070;28;20494;-74
2021/08/01 03:03:46;;;;;;;4.53;3.45;;;25.00;90.40;;;;;;4973618;28;20019;-74
2021/08/01 03:06:15;;;;;;;4.75;3.97;;;24.80;90.60;;;;;;4972388;28;20430;-74
2021/08/01 03:08:43;;;;;;;5.30;4.22;;;24.60;90.80;;;;;;4973671;28;20139;-74
2021/08/01 03:11:19;;;;;;;4.38;4.00;;;24.40;90.90;;;;;;4974517;28;20034;-73
2021/08/01 03:13:46;;;;;;;4.53;4.07;;;24.40;91.20;;;;;;4977539;28;20042;-73
2021/08/01 03:16:13;;;;;;;4.45;3.95;;;24.30;90.80;;;;;;4977250;28;20046;-73
2021/08/01 03:18:41;;;;;;;5.57;4.00;;;24.10;91.10;;;;;;4975821;28;20039;-73
2021/08/01 03:21:08;;;;;;;5.00;3.88;;;24.00;91.30;;;;;;4977097;28;20473;-73
2021/08/01 03:23:35;;;;;;;4.28;3.63;;;23.90;91.10;;;;;;4975783;28;20030;-73
2021/08/01 03:26:02;;;;;;;4.40;3.95;;;23.90;91.40;;;;;;4975852;28;20067;-73
2021/08/01 03:28:30;;;;;;;4.30;3.90;;;23.70;91.40;;;;;;4976930;28;20054;-73
2021/08/01 03:30:57;;;;;;;4.10;3.80;;;23.60;91.60;;;;;;4975538;28;20069;-73
2021/08/01 03:33:24;;;;;;;4.00;3.63;;;23.50;92.10;;;;;;4975531;28;20046;-73
2021/08/01 03:35:52;;;;;;;5.47;4.13;;;23.30;91.80;;;;;;4975388;28;20031;-73
2021/08/01 03:38:19;;;;;;;4.80;3.60;;;23.10;91.70;;;;;;4975231;28;20026;-73
2021/08/01 03:40:50;;;;;;;4.68;3.85;;;22.90;91.60;;;;;;4975379;28;20033;-72
2021/08/01 03:43:20;;;;;;;7.50;3.78;;;22.80;91.80;;;;;;4975402;28;20037;-72
2021/08/01 03:45:47;;;;;;;3.92;3.63;;;22.80;91.90;;;;;;4976618;28;20569;-73
2021/08/01 03:48:15;;;;;;;5.18;3.88;;;22.80;91.40;;;;;;4976638;28;20392;-72
2021/08/01 03:50:42;;;;;;;5.20;3.72;;;22.80;91.00;;;;;;4976527;28;20037;-75
2021/08/01 03:53:09;;;;;;;6.30;4.03;;;22.70;90.70;;;;;;4975183;28;20027;-72
2021/08/01 03:55:37;;;;;;;6.45;4.20;;;22.50;94.30;;;;;;4975087;28;20034;-72
2021/08/01 03:58:04;;;;;;;7.53;3.97;;;22.30;95.50;;;;;;4976457;28;20046;-72
2021/08/01 04:00:31;;;;;;;5.28;3.83;;;22.10;95.90;;;;;;4975180;28;20034;-74
2021/08/01 04:02:58;;;;;;;9.13;3.80;;;21.80;96.30;;;;;;4976527;28;20022;-74
2021/08/01 04:05:26;;;;;;;8.93;4.82;;;21.70;97.10;;;;;;4975108;28;20034;-72
2021/08/01 04:07:53;;;;;;;11.10;4.50;;;21.60;97.20;;;;;;4974804;28;20027;-72
2021/08/01 04:10:20;;;;;;;10.27;4.10;;;21.50;97.70;;;;;;4976412;28;20488;-74
2021/08/01 04:12:48;;;;;;;7.38;4.55;;;21.40;97.80;;;;;;4974546;28;20074;-74
2021/08/01 04:15:15;;;;;;;6.65;4.25;;;21.30;98.10;;;;;;4976186;28;20085;-74
2021/08/01 04:17:43;;;;;;;4.03;3.63;;;21.10;96.80;;;;;;4976059;28;20031;-74
2021/08/01 04:20:11;;;;;;;3.63;3.10;;;21.00;94.00;;;;;;4974718;28;20090;-74
2021/08/01 04:22:38;;;;;;;4.80;3.50;;;21.00;93.00;;;;;;4974667;28;20041;-72
2021/08/01 04:25:06;;;;;;;2.50;2.40;;;21.00;92.20;;;;;;4974587;28;20081;-73
2021/08/01 04:27:34;;;;;;;2.95;2.50;;;20.90;91.80;;;;;;4974617;28;20070;-72
2021/08/01 04:30:01;;;;;;;2.70;2.50;;;20.90;92.00;;;;;;4975913;28;20038;-73
2021/08/01 04:32:29;;;;;;;3.58;2.40;;;20.80;91.70;;;;;;4975860;28;20038;-73
2021/08/01 04:34:56;;;;;;;2.47;2.30;;;20.80;91.80;;;;;;4975751;28;20037;-73
2021/08/01 04:37:23;;;;;;;2.47;2.38;;;20.70;91.80;;;;;;4975582;28;20027;-74
2021/08/01 04:39:51;;;;;;;2.42;2.30;;;20.60;91.90;;;;;;4975815;28;20026;-72
2021/08/01 04:42:18;;;;;;;2.90;2.70;;;20.60;92.00;;;;;;4975705;28;20484;-73
2021/08/01 04:44:45;;;;;;;2.45;2.28;;;20.60;92.40;;;;;;4976019;28;20384;-73
2021/08/01 04:47:14;;;;;;;3.63;2.22;;;20.70;92.40;;;;;;4975579;28;20491;-73
2021/08/01 04:49:42;;;;;;;2.45;2.28;;;20.70;92.20;;;;;;4974150;28;20041;-74
2021/08/01 04:52:16;;;;;;;2.42;2.30;;;20.60;92.10;;;;;;4975496;28;20109;-74
2021/08/01 04:54:44;;;;;;;2.53;2.30;;;20.60;92.10;;;;;;4975375;28;20023;-74
2021/08/01 04:57:12;;;;;;;2.50;2.30;;;20.50;92.10;;;;;;4973936;28;20507;-71
2021/08/01 04:59:40;;;;;;;2.45;2.25;;;20.40;92.20;;;;;;4975205;28;20019;-71
2021/08/01 05:02:07;;;;;;;2.72;2.10;;;20.30;92.50;;;;;;4973878;28;20403;-73
2021/08/01 05:04:34;;;;;;;2.22;2.08;;;20.20;92.90;;;;;;4973722;28;20106;-71
2021/08/01 05:07:02;;;;;;;2.50;2.20;;;20.10;92.60;;;;;;4975083;28;20073;-69
2021/08/01 05:09:29;;;;;;;4.05;2.63;;;20.20;92.40;;;;;;4973486;28;20062;-73
2021/08/01 05:11:57;;;;;;;2.30;2.20;;;20.30;92.10;;;;;;4973642;28;20046;-72
2021/08/01 05:14:24;;;;;;;2.30;2.17;;;20.40;91.80;;;;;;4975065;28;20042;-73
2021/08/01 05:16:51;;;;;;;2.30;2.20;;;20.30;91.50;;;;;;4973730;28;20110;-74
2021/08/01 05:19:18;;;;;;;2.50;2.30;;;20.20;91.30;;;;;;4974713;28;20051;-74
2021/08/01 05:21:46;;;;;;;2.05;2.05;;;20.10;91.30;;;;;;4974861;28;20054;-75
2021/08/01 05:24:16;;;;;;;2.30;2.20;;;20.00;91.30;;;;;;4975041;28;20129;-74
2021/08/01 05:26:44;;;;;;;2.20;2.10;;;20.00;91.30;;;;;;4973527;28;20456;-74
2021/08/01 05:29:12;;;;;;;2.50;2.30;;;19.90;90.90;;;;;;4973566;28;20571;-75
2021/08/01 05:31:39;;;;;;;2.40;2.30;;;19.90;90.90;;;;;;4973394;28;20026;-74
2021/08/01 05:34:07;;;;;;;2.53;2.33;;;19.80;90.80;;;;;;4974134;28;20077;-74
2021/08/01 05:36:34;;;;;;;2.40;2.30;;;19.80;90.90;;;;;;4973242;28;20033;-75
2021/08/01 05:39:02;;;;;;;2.50;2.40;;;19.80;91.00;;;;;;4974330;28;20070;-69
2021/08/01 05:41:29;;;;;;;2.58;2.47;;;19.70;91.40;;;;;;4974549;28;20027;-74
2021/08/01 05:43:56;;;;;;;2.80;2.60;;;19.70;91.20;;;;;;4973038;28;20023;-73
2021/08/01 05:46:24;;;;;;;2.60;2.50;;;19.60;91.20;;;;;;4974418;28;20030;-75
2021/08/01 05:48:51;;;;;;;2.50;2.40;;;19.50;91.40;;;;;;4972951;28;20049;-75
2021/08/01 05:51:20;;;;;;;2.50;2.40;;;19.50;91.50;;;;;;4972981;28;20030;-75
2021/08/01 05:53:47;;;;;;;2.50;2.40;;;19.50;91.60;;;;;;4974201;28;20110;-76
2021/08/01 05:56:15;;;;;;;3.00;2.80;;;19.50;91.80;;;;;;4974223;28;20026;-73
2021/08/01 05:58:43;;;;;;;2.60;2.50;;;19.40;92.60;;;;;;4972684;28;20031;-74
2021/08/01 06:01:17;;;;;;;2.70;2.53;;;19.30;92.20;;;;;;4974050;28;20031;-75
2021/08/01 06:03:45;;;;;;;2.58;2.38;;;19.30;92.00;;;;;;4974389;28;20053;-75
2021/08/01 06:06:19;;;;;;;2.42;2.33;;;19.30;92.10;;;;;;4972739;28;20384;-74
2021/08/01 06:08:48;;;;;;;2.55;2.45;;;19.30;92.60;;;;;;4972823;28;20039;-73
2021/08/01 06:11:16;;;;;;;2.58;2.40;;;19.20;92.90;;;;;;4973825;28;20049;-72
2021/08/01 06:13:44;;;;;;;2.40;2.30;;;19.10;92.30;;;;;;4974031;28;20045;-74
2021/08/01 06:16:13;;;;;;;2.40;2.30;;;19.10;92.70;;;;;;4972663;28;20099;-74
2021/08/01 06:18:42;;;;;;;2.88;2.70;;;19.00;92.70;;;;;;4972520;28;20073;-72
2021/08/01 06:21:17;;;;;;;2.50;2.40;;;18.90;92.40;;;;;;4973993;28;20022;-72
2021/08/01 06:23:47;;;;;;;2.50;2.40;;;18.90;91.60;;;;;;4974013;28;20380;-73
2021/08/01 06:26:15;;;;;;;2.40;2.40;;;18.90;91.60;;;;;;4972649;28;20110;-70
2021/08/01 06:28:43;;;;;;;2.70;2.60;;;18.80;91.40;;;;;;4974006;28;20625;-72
2021/08/01 06:31:11;;;;;;;2.65;2.55;;;18.80;91.20;;;;;;4973885;28;20089;-72
2021/08/01 06:33:39;;;;;;;2.40;2.30;;;18.80;91.40;;;;;;4973981;28;20153;-73
2021/08/01 06:36:11;;;;;;;2.50;2.40;;;18.70;91.40;;;;;;4973886;28;20037;-73
2021/08/01 06:38:39;;;;;;;2.60;2.50;;;18.70;91.40;;;;;;4973878;28;20023;-73
2021/08/01 06:41:07;;;;;;;2.90;2.50;;;18.70;91.50;;;;;;4974146;28;20057;-73
2021/08/01 06:43:35;;;;;;;1.90;1.90;;;18.70;91.80;;;;;;4974085;28;20029;-73
2021/08/01 06:46:02;;;;;;;2.58;2.47;;;18.70;91.50;;;;;;4974507;28;20026;-73
2021/08/01 06:48:30;;;;;;;2.30;2.20;;;18.70;91.40;;;;;;4977772;28;20101;-73
2021/08/01 06:50:57;;;;;;;2.60;2.50;;;18.70;91.40;;;;;;4976585;28;20369;-73
2021/08/01 06:53:27;;;;;;;2.72;2.63;;;18.70;91.40;;;;;;4977846;28;20031;-73
2021/08/01 06:55:54;;;;;;;3.00;2.80;;;18.70;91.50;;;;;;4977833;28;20054;-73
2021/08/01 06:58:22;;;;;;;2.78;2.67;;;18.60;91.90;;;;;;4977549;28;20031;-73
2021/08/01 07:00:51;;;;;;;3.00;2.90;;;18.60;91.80;;;;;;4976187;28;20113;-73
2021/08/01 07:03:18;;;;;;;3.17;3.08;;;18.60;91.90;;;;;;4977793;28;20094;-73
2021/08/01 07:05:46;;;;;;;2.67;2.50;;;18.60;92.00;;;;;;4977435;28;20043;-72
2021/08/01 07:08:13;;;;;;;2.70;2.60;;;18.60;92.10;;;;;;4976046;28;20041;-73
2021/08/01 07:10:41;;;;;;;2.60;2.50;;;18.50;92.10;;;;;;4977537;28;20031;-72
2021/08/01 07:13:10;;;;;;;2.60;2.50;;;18.60;92.10;;;;;;4977221;28;20047;-74
2021/08/01 07:15:37;;;;;;;2.50;2.40;;;18.50;92.00;;;;;;4977403;28;20027;-73
2021/08/01 07:18:06;;;;;;;2.58;2.47;;;18.50;92.00;;;;;;4977101;28;20376;-71
2021/08/01 07:20:34;;;;;;;2.63;2.53;;;18.50;91.90;;;;;;4977174;28;20023;-72
2021/08/01 07:23:02;;;;;;;3.42;2.75;;;18.50;91.80;;;;;;4977336;28;20022;-72
2021/08/01 07:25:29;;;;;;;2.67;2.58;;;18.40;91.90;;;;;;4977203;28;20395;-73
2021/08/01 07:27:56;;;;;;;2.10;2.10;;;18.40;92.40;;;;;;4977069;28;20041;-72
2021/08/01 07:30:24;;;;;;;2.20;2.10;;;18.40;91.90;;;;;;4977250;28;20396;-72
2021/08/01 07:32:51;;;;;;;2.85;2.20;;;18.30;91.80;;;;;;4977040;28;20058;-72
2021/08/01 07:35:18;;;;;;;2.05;1.95;;;18.30;91.50;;;;;;4976755;28;20484;-68
2021/08/01 07:37:46;;;;;;;2.47;2.28;;;18.30;91.30;;;;;;4976618;28;20050;-69
2021/08/01 07:40:13;;;;;;;2.47;2.35;;;18.20;91.40;;;;;;4975167;28;20491;-69
2021/08/01 07:42:40;;;;;;;2.22;2.13;;;18.20;91.50;;;;;;4976519;28;20030;-69
2021/08/01 07:45:23;;;;;;;2.22;2.13;;;18.20;91.60;;;;;;4976474;28;20070;-69
2021/08/01 07:47:50;;;;;;;2.00;1.90;;;18.10;91.50;;;;;;4976425;28;20031;-68
2021/08/01 07:50:18;;;;;;;2.40;2.30;;;18.10;91.60;;;;;;4976253;28;20437;-69
2021/08/01 07:52:46;;;;;;;2.50;2.30;;;18.10;91.80;;;;;;4976351;28;20027;-70
2021/08/01 07:55:15;;;;;;;2.20;2.10;;;18.00;91.70;;;;;;4976356;28;20029;-70
2021/08/01 07:57:44;;;;;;;2.67;2.50;;;18.00;91.90;;;;;;4975673;28;20023;-69
2021/08/01 08:00:13;;;;;;;2.45;2.35;;;18.00;92.00;;;;;;4976229;28;20027;-70
2021/08/01 08:02:41;;;;;;;2.50;2.40;;;17.90;92.00;;;;;;4976226;28;20506;-70
2021/08/01 08:05:09;;;;;;;2.50;2.30;;;17.90;92.00;;;;;;4974695;28;20030;-70
2021/08/01 08:07:36;;;;;;;3.10;2.90;;;17.90;92.10;;;;;;4976107;28;20090;-70
2021/08/01 08:10:05;;;;;;;9.40;3.92;;;17.90;93.30;;;;;;4974593;28;20134;-69
2021/08/01 08:12:33;;;;;;;14.23;4.38;;;17.70;98.70;;;;;;4974561;28;20042;-69
2021/08/01 08:15:00;;;;;;;9.65;4.60;;;17.30;99.90;;;;;;4974899;28;20027;-69
2021/08/01 08:17:33;;;;;;;11.68;4.47;;;17.00;99.90;;;;;;4975882;28;20027;-69
2021/08/01 08:20:04;;;;;;;12.27;4.18;;;16.70;99.90;;;;;;4976051;28;20114;-69
2021/08/01 08:22:32;;;;;;;17.13;5.43;;;16.40;99.90;;;;;;4975860;28;20019;-68
2021/08/01 08:24:59;;;;;;;13.13;6.28;;;16.20;99.90;;;;;;4975888;28;20175;-68
2021/08/01 08:27:26;;;;;;;12.52;6.70;;;16.00;99.90;;;;;;4974340;28;20058;-68
2021/08/01 08:29:54;;;;;;;13.38;6.25;;;15.80;99.90;;;;;;4975830;28;20551;-70
2021/08/01 08:32:21;;;;;;;16.42;6.57;;;15.60;99.90;;;;;;4974407;28;20027;-69
2021/08/01 08:34:48;;;;;;;15.45;7.05;;;15.40;99.90;;;;;;4974354;28;20141;-70
2021/08/01 08:37:16;;;;;;;14.52;6.95;;;15.20;99.90;;;;;;4975675;28;20031;-69
2021/08/01 08:39:43;;;;;;;17.75;6.32;;;15.10;99.90;;;;;;4975564;28;20460;-69
2021/08/01 08:42:14;;;;;;;12.07;5.93;;;15.10;99.90;;;;;;4975779;28;20027;-69
2021/08/01 08:44:41;;;;;;;13.18;7.10;;;14.90;99.90;;;;;;4975305;28;20027;-70
2021/08/01 08:47:09;;;;;;;12.85;7.18;;;14.90;99.90;;;;;;4975389;28;20458;-69
2021/08/01 08:49:37;;;;;;;16.52;8.38;;;14.70;99.90;;;;;;4975133;28;20042;-69
2021/08/01 08:52:08;;;;;;;13.77;8.30;;;14.70;99.90;;;;;;4973646;28;20105;-69
2021/08/01 08:54:38;;;;;;;;;;;14.60;99.90;;;;;;4975575;28;20022;-69
2021/08/01 08:57:26;;;;;;;12.85;8.23;;;14.60;99.90;;;;;;4975328;28;19906;-69
2021/08/01 09:00:16;;;;;;;15.65;8.00;;;14.60;99.90;;;;;;4975001;28;20101;-69
2021/08/01 09:02:43;;;;;;;11.10;7.35;;;14.50;99.90;;;;;;4974980;28;20099;-69
2021/08/01 09:05:11;;;;;;;15.82;8.48;;;14.40;99.90;;;;;;4974882;28;20506;-70
2021/08/01 09:07:42;;;;;;;10.15;7.88;;;14.40;99.90;;;;;;4974840;28;20419;-69
2021/08/01 09:10:10;;;;;;;12.00;7.88;;;14.30;99.90;;;;;;4973998;28;20026;-70
2021/08/01 09:12:46;;;;;;;12.73;8.02;;;14.20;99.90;;;;;;4973056;28;20101;-69
2021/08/01 09:15:20;;;;;;;14.27;8.30;;;14.20;99.90;;;;;;4974748;28;20110;-69
2021/08/01 09:17:48;;;;;;;12.73;8.10;;;14.20;99.90;;;;;;4973334;28;20038;-68
2021/08/01 09:20:20;;;;;;;9.90;7.70;;;14.10;99.90;;;;;;4974839;28;20019;-69
2021/08/01 09:23:02;;;;;;;10.27;7.60;;;14.10;99.90;;;;;;4974821;28;20483;-70
2021/08/01 09:25:32;;;;;;;12.20;8.07;;;14.10;99.90;;;;;;4974808;28;20156;-70
2021/08/01 09:28:21;;;;;;;14.27;8.57;;;14.10;99.90;;;;;;4974581;28;20095;-69
2021/08/01 09:30:48;;;;;;;9.10;8.07;;;14.10;99.90;;;;;;4974533;28;20483;-69
2021/08/01 09:33:33;;;;;;;10.23;7.32;;;14.10;99.90;;;;;;4974662;28;20484;-68
2021/08/01 09:36:08;;;;;;;16.33;7.90;;;14.10;99.90;;;;;;4974374;28;20054;-69
2021/08/01 09:38:48;;;;;;;11.88;7.75;;;14.10;99.90;;;;;;4974300;28;20479;-68
2021/08/01 09:41:19;;;;;;;11.15;7.70;;;14.10;99.90;;;;;;4973259;28;20201;-68
2021/08/01 09:43:57;;;;;;;9.27;8.25;;;14.10;99.90;;;;;;4974166;28;20027;-68
2021/08/01 09:46:48;;;;;;;11.95;7.85;;;14.10;99.90;;;;;;4974221;28;20057;-68
2021/08/01 09:49:20;;;;;;;8.80;7.50;;;14.00;99.90;;;;;;4963278;28;20122;-69
2021/08/01 09:51:56;;;;;;;11.65;8.07;;;14.00;99.90;;;;;;4972791;28;20450;-68
2021/08/01 09:54:26;;;;;;;10.05;7.20;;;13.90;99.90;;;;;;4974175;28;20384;-68
2021/08/01 09:57:00;;;;;;;8.33;6.63;;;13.90;99.90;;;;;;4974141;28;20030;-68
2021/08/01 09:59:31;;;;;;;7.32;6.15;;;13.90;99.90;;;;;;4974187;28;20479;-69
2021/08/01 10:02:00;;;;;;;9.45;6.90;;;13.90;99.90;;;;;;4974100;28;20558;-67
2021/08/01 10:04:38;;;;;;;8.35;6.68;;;14.00;99.90;;;;;;4973977;28;20503;-68
2021/08/01 10:07:18;;;;;;;7.13;6.30;;;13.90;99.90;;;;;;4973888;28;20034;-67
2021/08/01 10:09:51;;;;;;;6.23;5.77;;;13.80;99.90;;;;;;4974020;28;20038;-68
2021/08/01 10:12:18;;;;;;;13.98;7.03;;;13.80;99.90;;;;;;4972351;28;20134;-68
2021/08/01 10:14:46;;;;;;;11.27;6.55;;;13.80;99.90;;;;;;4973866;28;20027;-67
2021/08/01 10:17:13;;;;;;;9.60;6.80;;;13.70;99.90;;;;;;4973733;28;20090;-67
2021/08/01 10:19:41;;;;;;;10.45;7.45;;;13.60;99.90;;;;;;4974030;28;20090;-67
2021/08/01 10:22:09;;;;;;;8.93;6.57;;;13.60;99.90;;;;;;4980347;28;20475;-67
2021/08/01 10:24:44;;;;;;;8.38;6.70;;;13.50;99.90;;;;;;4979153;28;20027;-69
2021/08/01 10:27:14;;;;;;;10.43;7.18;;;13.50;99.90;;;;;;4980163;28;20347;-67
2021/08/01 10:29:48;;;;;;;11.30;6.88;;;13.50;99.90;;;;;;4980696;28;20030;-68
2021/08/01 10:32:20;;;;;;;8.07;7.00;;;13.50;99.90;;;;;;4980373;28;20118;-68
2021/08/01 10:34:49;;;;;;;8.57;7.68;;;13.50;99.90;;;;;;4978885;28;20053;-67
2021/08/01 10:37:31;;;;;;;8.40;7.00;;;13.60;99.90;;;;;;4980052;28;20046;-68
2021/08/01 10:40:02;;;;;;;10.75;7.13;;;13.70;99.90;;;;;;4980078;28;20073;-68
2021/08/01 10:42:32;;;;;;;7.85;7.10;;;13.70;99.90;;;;;;4980088;28;20073;-68
2021/08/01 10:45:00;;;;;;;8.65;7.75;;;13.70;99.90;;;;;;4980198;28;20023;-68
2021/08/01 10:47:28;;;;;;;10.68;7.50;;;13.80;99.90;;;;;;4980067;28;20042;-68
2021/08/01 10:49:56;;;;;;;10.82;7.60;;;13.80;99.90;;;;;;4980028;28;20027;-68
2021/08/01 10:52:33;;;;;;;10.65;7.40;;;13.80;99.90;;;;;;4980098;28;20027;-68
2021/08/01 10:55:03;;;;;;;8.23;7.40;;;13.80;99.90;;;;;;4978660;28;20049;-68
2021/08/01 10:57:30;;;;;;;8.47;7.00;;;13.80;99.90;;;;;;4980171;28;20078;-67
2021/08/01 11:00:00;;;;;;;8.38;7.00;;;13.80;99.90;;;;;;4978496;28;20066;-66
2021/08/01 11:02:29;;;;;;;8.27;7.47;;;13.80;99.90;;;;;;4978761;28;20023;-66
2021/08/01 11:04:57;;;;;;;7.95;7.13;;;13.70;99.90;;;;;;4978681;28;20027;-67
2021/08/01 11:07:27;;;;;;;8.52;7.68;;;13.60;99.90;;;;;;4979901;28;20014;-67
2021/08/01 11:10:23;;;;;;;7.78;7.20;;;13.60;99.90;;;;;;4979840;28;20033;-67
2021/08/01 11:12:51;;;;;;;7.43;6.93;;;13.60;99.90;;;;;;4978077;28;20129;-67
2021/08/01 11:15:38;;;;;;;12.05;8.00;;;13.60;99.90;;;;;;4978436;28;20475;-68
2021/08/01 11:18:07;;;;;;;8.80;7.93;;;13.50;99.90;;;;;;4979740;28;20396;-66
2021/08/01 11:20:34;;;;;;;8.23;7.63;;;13.50;99.90;;;;;;4979681;28;20025;-66
2021/08/01 11:23:04;;;;;;;8.70;7.88;;;13.40;99.90;;;;;;4979913;28;20431;-67
2021/08/01 11:25:44;;;;;;;8.70;7.93;;;13.40;99.90;;;;;;4979679;28;20054;-67
2021/08/01 11:28:17;;;;;;;7.32;6.82;;;13.30;99.90;;;;;;4979836;28;20030;-66
2021/08/01 11:31:01;;;;;;;9.05;6.70;;;13.10;99.90;;;;;;4979933;28;20027;-67
2021/08/01 11:33:40;;;;;;;7.47;6.88;;;13.10;99.90;;;;;;4975961;28;20109;-68
2021/08/01 11:36:15;;;;;;;7.10;6.40;;;12.90;99.90;;;;;;4976578;28;20030;-67
2021/08/01 11:38:55;;;;;;;7.22;6.72;;;12.80;99.90;;;;;;4976472;28;20026;-67
2021/08/01 11:41:35;;;;;;;7.72;7.10;;;12.80;99.90;;;;;;4976489;28;20041;-67
2021/08/01 11:44:17;;;;;;;8.13;7.53;;;12.80;99.90;;;;;;4976468;28;20081;-67
2021/08/01 11:46:53;;;;;;;8.05;7.15;;;12.70;99.90;;;;;;4975115;28;20034;-67
2021/08/01 11:49:43;;;;;;;7.38;6.70;;;12.60;99.90;;;;;;4976945;28;20027;-67
2021/08/01 11:52:11;;;;;;;6.97;6.40;;;12.60;99.90;;;;;;4966849;28;20492;-67
2021/08/01 11:54:43;;;;;;;7.15;6.00;;;12.60;99.90;;;;;;4976360;28;20322;-67
2021/08/01 11:57:13;;;;;;;6.65;6.03;;;12.50;99.90;;;;;;4976384;28;20031;-68
2021/08/01 11:59:41;;;;;;;6.70;6.20;;;12.50;99.90;;;;;;4974451;28;20073;-69
2021/08/01 12:02:14;;;;;;;7.00;6.50;;;12.50;99.90;;;;;;4976149;28;20150;-68
2021/08/01 12:04:54;;;;;;;7.15;6.55;;;12.60;99.90;;;;;;4974896;28;20076;-69
2021/08/01 12:07:22;;;;;;;6.80;6.30;;;12.50;99.90;;;;;;4976207;28;20492;-68
2021/08/01 12:09:49;;;;;;;6.70;6.30;;;12.50;99.90;;;;;;4976091;28;20063;-68
2021/08/01 12:12:29;;;;;;;7.13;6.60;;;12.50;99.90;;;;;;4975795;28;20126;-68
2021/08/01 12:14:56;;;;;;;7.15;6.50;;;12.50;99.90;;;;;;4976081;28;20037;-68
2021/08/01 12:17:24;;;;;;;7.90;7.13;;;12.40;99.90;;;;;;4976093;28;20478;-68
2021/08/01 12:19:51;;;;;;;7.05;6.40;;;12.30;99.90;;;;;;4974390;28;20391;-69
2021/08/01 12:22:24;;;;;;;7.78;7.00;;;12.30;99.90;;;;;;4976018;28;20023;-67
2021/08/01 12:24:57;;;;;;;7.55;6.85;;;12.30;99.90;;;;;;4975790;28;20477;-68
2021/08/01 12:27:30;;;;;;;7.38;6.68;;;12.20;99.90;;;;;;4975757;28;20019;-67
2021/08/01 12:30:08;;;;;;;7.30;6.50;;;12.10;99.90;;;;;;4974276;28;20039;-68
2021/08/01 12:32:43;;;;;;;7.10;6.50;;;12.10;99.90;;;;;;4975753;28;20058;-68
2021/08/01 12:35:22;;;;;;;6.80;6.10;;;12.10;99.90;;;;;;4975631;28;20122;-68
2021/08/01 12:38:02;;;;;;;7.30;6.70;;;11.90;99.90;;;;;;4975581;28;20039;-68
2021/08/01 12:40:36;;;;;;;6.90;6.30;;;11.90;99.90;;;;;;4975562;28;20023;-69
2021/08/01 12:43:16;;;;;;;7.05;6.53;;;11.90;99.90;;;;;;4973647;28;20038;-69
2021/08/01 12:45:46;;;;;;;7.07;6.47;;;11.90;99.90;;;;;;4974978;28;20030;-68
2021/08/01 12:48:33;;;;;;;7.50;6.80;;;11.80;99.90;;;;;;4975302;28;20418;-69
2021/08/01 12:51:04;;;;;;;7.00;6.40;;;11.80;99.90;;;;;;4975320;28;20041;-69
2021/08/01 12:53:31;;;;;;;6.60;6.20;;;11.80;99.90;;;;;;4975178;28;20054;-69
2021/08/01 12:56:01;;;;;;;6.55;6.15;;;11.80;99.90;;;;;;4973948;28;20069;-69
2021/08/01 12:58:35;;;;;;;6.10;5.70;;;11.80;99.90;;;;;;4975107;28;20029;-69
2021/08/01 13:01:07;;;;;;;7.68;6.68;;;11.70;99.90;;;;;;4975151;28;20022;-69
2021/08/01 13:03:36;;;;;;;6.70;6.20;;;11.60;99.90;;;;;;4975027;28;20022;-68
2021/08/01 13:06:04;;;;;;;7.68;6.70;;;11.60;99.90;;;;;;4975000;28;20023;-68